CST,Max TemperatureF,Mean TemperatureF,Min TemperatureF,Max Dew PointF,MeanDew PointF,Min DewpointF,Max Humidity, Mean Humidity, Min Humidity, Max Sea Level PressureIn, Mean Sea Level PressureIn, Min Sea Level PressureIn, Max VisibilityMiles, Mean VisibilityMiles, Min VisibilityMiles, Max Wind SpeedMPH, Mean Wind SpeedMPH, Max Gust SpeedMPH,PrecipitationIn, CloudCover, Events, WindDirDegrees
2012-12-1,35,29,23,32,28,19,100,97,86,29.91,29.78,29.67,10,4,0,17,11,25,0.00,7,Fog-Rain,332
2012-12-2,33,27,21,34,28,19,100,99,86,29.92,29.70,29.35,10,3,0,21,8,28,0.00,6,Fog,137
2012-12-3,39,26,12,37,25,5,100,83,67,29.95,29.55,29.32,10,9,4,36,15,46,0.00,2,Rain-Snow,266
2012-12-4,17,12,8,10,7,5,92,77,67,30.39,30.25,29.97,10,10,10,21,14,28,0.00,1,,338
2012-12-5,32,21,10,25,17,9,93,74,60,30.35,29.92,29.57,10,10,9,29,15,34,0.00,2,,168
2012-12-6,35,25,15,30,19,9,86,77,64,30.03,29.85,29.57,10,10,9,23,15,33,0.00,4,,295
2012-12-7,15,10,5,9,5,0,92,82,73,30.14,30.10,30.02,10,10,7,13,7,,0.00,2,Rain-Snow,353
2012-12-8,14,8,0,10,6,-4,92,86,78,30.22,30.05,29.98,10,5,0,23,10,28,0.00,7,Rain-Snow,22
2012-12-9,0,-6,-11,-4,-9,-17,85,77,65,30.41,30.32,30.17,10,7,1,22,16,29,0.00,4,,347
2012-12-10,15,2,-11,10,-1,-17,92,81,68,30.16,29.85,29.71,10,9,2,21,10,26,0.00,3,Snow,177
2012-12-11,8,2,-5,3,-4,-11,85,76,66,29.95,29.86,29.73,10,10,4,17,10,24,0.00,3,Rain-Snow,3
2012-12-12,10,5,0,7,1,-4,92,82,78,30.04,29.87,29.74,10,8,2,21,12,24,0.00,8,Rain-Snow,20
2012-12-13,15,8,1,14,2,-2,93,81,72,30.15,30.10,30.04,10,9,3,15,10,17,0.00,8,Snow,348
2012-12-14,23,14,6,19,16,5,100,93,85,30.04,29.90,29.76,10,4,0,23,10,25,0.00,6,Fog-Snow,173
2012-12-15,19,12,6,18,12,5,100,94,85,29.78,29.73,29.68,10,5,0,23,5,31,0.00,4,Fog-Rain-Snow,330
2012-12-16,23,20,17,23,18,14,100,90,86,29.87,29.83,29.78,10,8,4,13,10,18,0.00,8,Rain-Snow,346
2012-12-17,17,16,14,16,14,14,100,92,86,29.84,29.73,29.66,10,9,4,12,5,,0.00,8,Snow,189
2012-12-18,24,20,15,25,20,14,100,96,86,29.70,29.67,29.64,10,5,1,8,5,,0.00,8,Snow,104
2012-12-19,24,18,10,25,17,9,100,92,79,30.11,29.87,29.70,10,6,1,18,7,22,0.00,8,Rain-Snow,341
2012-12-20,10,6,1,7,3,0,92,85,78,30.24,30.17,30.11,10,9,5,13,8,,0.00,6,Snow,324
2012-12-21,8,6,5,5,3,0,92,84,78,30.28,30.19,30.05,10,10,6,17,8,22,0.00,4,Snow,188
2012-12-22,14,8,0,9,3,-2,92,84,78,30.27,30.15,30.03,10,7,1,23,12,29,0.00,6,Rain-Snow,343
2012-12-23,1,-2,-4,-2,-6,-9,92,81,71,30.28,30.25,30.22,10,7,2,16,12,23,0.00,6,Rain-Snow,2
2012-12-24,-2,-6,-9,-8,-11,-13,84,77,71,30.42,30.32,30.23,10,8,4,17,12,22,0.00,3,,334
2012-12-25,-2,-6,-11,-9,-13,-17,84,74,65,30.52,30.46,30.41,10,10,10,12,6,,0.00,0,,274
2012-12-26,6,1,-4,5,-3,-9,92,82,71,30.41,30.33,30.28,10,9,3,7,3,,0.00,5,Snow,99
2012-12-27,14,10,6,9,7,3,100,87,79,30.28,30.21,30.15,10,8,2,8,4,,0.00,7,Snow,124
2012-12-28,14,10,5,9,6,1,92,87,79,30.15,30.06,29.99,10,7,3,9,6,,0.00,5,Snow,201
2012-12-29,12,4,-4,9,0,-9,85,80,72,30.08,30.04,29.99,10,9,2,14,8,,0.00,6,Snow,258
2012-12-30,21,10,0,18,6,-4,93,85,78,30.15,29.98,29.87,10,8,2,18,11,26,0.00,3,Rain-Snow,251
2012-12-31,0,-6,-11,-4,-10,-17,85,78,71,30.29,30.25,30.16,10,10,5,12,7,,0.00,0,,263